Time;durP1;ratioP1;P1;durP2;ratioP2;P2;SDS_P1;SDS_P2;PMS_P1;PMS_P2;Temp;Humidity;BMP_temperature;BMP_pressure;BME280_temperature;BME280_humidity;BME280_pressure;Samples;Min_cycle;Max_cycle;Signal;HPM_P1;HPM_P2
2021/01/25 00:00:31;;;;;;;12.18;3.13;;;23.70;53.20;;;;;;6243703;23;20111;-70
2021/01/25 00:02:58;;;;;;;12.57;3.35;;;23.60;53.30;;;;;;6243907;23;20079;-72
2021/01/25 00:05:24;;;;;;;16.00;4.00;;;23.60;53.40;;;;;;6244215;23;20023;-72
2021/01/25 00:07:51;;;;;;;13.13;3.42;;;23.60;53.30;;;;;;6244830;23;20000;-71
2021/01/25 00:10:17;;;;;;;8.55;2.40;;;23.60;53.40;;;;;;6243985;23;20018;-70
2021/01/25 00:12:44;;;;;;;6.75;2.38;;;23.60;53.50;;;;;;6244240;23;20008;-72
2021/01/25 00:15:11;;;;;;;11.73;3.85;;;23.60;53.60;;;;;;6243414;23;20007;-70
2021/01/25 00:17:37;;;;;;;7.25;2.10;;;23.60;53.70;;;;;;6245135;23;20000;-71
2021/01/25 00:20:04;;;;;;;11.18;2.00;;;23.60;53.70;;;;;;6243532;23;20000;-71
2021/01/25 00:22:31;;;;;;;8.45;2.55;;;23.60;53.70;;;;;;6244458;23;20010;-72
2021/01/25 00:24:57;;;;;;;11.57;2.38;;;23.60;53.80;;;;;;6244303;23;20027;-70
2021/01/25 00:27:24;;;;;;;11.68;3.30;;;23.50;53.80;;;;;;6243291;23;20000;-71
2021/01/25 00:29:50;;;;;;;8.55;2.38;;;23.50;53.80;;;;;;6244367;23;20051;-70
2021/01/25 00:32:17;;;;;;;10.07;2.83;;;23.50;54.00;;;;;;6242973;23;20024;-72
2021/01/25 00:34:44;;;;;;;10.77;2.55;;;23.50;53.90;;;;;;6243968;23;20019;-71
2021/01/25 00:37:10;;;;;;;9.57;3.40;;;23.50;54.00;;;;;;6243074;23;20084;-70
2021/01/25 00:39:37;;;;;;;7.20;2.55;;;23.40;53.90;;;;;;6244447;23;20011;-70
2021/01/25 00:42:04;;;;;;;8.25;3.08;;;23.40;53.90;;;;;;6243886;23;19996;-71
2021/01/25 00:44:30;;;;;;;10.25;3.22;;;23.40;54.00;;;;;;6241703;23;20000;-71
2021/01/25 00:46:57;;;;;;;9.98;3.22;;;23.40;54.00;;;;;;6242691;23;20403;-71
2021/01/25 00:49:23;;;;;;;8.13;3.05;;;23.40;54.10;;;;;;6241548;23;20091;-72
2021/01/25 00:51:50;;;;;;;9.23;3.17;;;23.40;54.20;;;;;;6242601;23;20004;-70
2021/01/25 00:54:16;;;;;;;12.20;3.30;;;23.30;54.10;;;;;;6241329;23;20000;-71
2021/01/25 00:56:43;;;;;;;7.97;2.40;;;23.40;54.10;;;;;;6242654;23;20412;-71
2021/01/25 00:59:09;;;;;;;11.70;3.20;;;23.40;54.10;;;;;;6242340;23;20004;-72
2021/01/25 01:01:36;;;;;;;8.90;2.42;;;23.30;54.10;;;;;;6242385;23;20012;-71
2021/01/25 01:04:02;;;;;;;6.93;2.47;;;23.30;54.20;;;;;;6243133;23;20050;-71
2021/01/25 01:06:29;;;;;;;9.55;4.22;;;23.30;54.20;;;;;;6241292;23;20420;-71
2021/01/25 01:08:55;;;;;;;7.20;2.50;;;23.30;54.20;;;;;;6242439;23;20332;-71
2021/01/25 01:11:22;;;;;;;10.88;3.45;;;23.30;54.20;;;;;;6241509;23;20067;-71
2021/01/25 01:13:48;;;;;;;10.35;2.72;;;23.30;54.20;;;;;;6242635;23;20034;-71
2021/01/25 01:16:14;;;;;;;8.85;3.17;;;23.30;54.30;;;;;;6241551;23;20003;-70
2021/01/25 01:18:41;;;;;;;8.60;2.55;;;23.30;54.30;;;;;;6242432;23;20000;-70
2021/01/25 01:21:08;;;;;;;5.75;2.20;;;23.30;54.30;;;;;;6241874;23;20001;-71
2021/01/25 01:23:34;;;;;;;8.80;3.33;;;23.30;54.30;;;;;;6241430;23;20008;-71
2021/01/25 01:26:00;;;;;;;10.82;2.78;;;23.20;54.40;;;;;;6242457;23;20088;-71
2021/01/25 01:28:27;;;;;;;8.15;2.38;;;23.20;54.50;;;;;;6240390;23;20012;-71
2021/01/25 01:30:53;;;;;;;9.73;2.25;;;23.20;54.60;;;;;;6242102;23;19996;-70
2021/01/25 01:33:20;;;;;;;8.63;2.42;;;23.30;54.60;;;;;;6241725;23;19996;-71
2021/01/25 01:35:47;;;;;;;9.18;2.70;;;23.30;54.60;;;;;;6242178;23;20004;-70
2021/01/25 01:38:13;;;;;;;9.73;2.20;;;23.20;54.60;;;;;;6241740;23;20032;-71
2021/01/25 01:40:39;;;;;;;7.85;2.42;;;23.20;54.70;;;;;;6241379;23;20004;-71
2021/01/25 01:43:06;;;;;;;13.23;3.58;;;23.20;54.70;;;;;;6242369;23;20007;-71
2021/01/25 01:45:32;;;;;;;7.82;2.95;;;23.20;54.70;;;;;;6240740;23;20035;-71
2021/01/25 01:47:59;;;;;;;11.98;2.67;;;23.20;54.80;;;;;;6242769;23;20042;-70
2021/01/25 01:50:26;;;;;;;9.88;3.63;;;23.10;54.70;;;;;;6241055;23;20016;-71
2021/01/25 01:52:53;;;;;;;10.25;3.00;;;23.10;54.80;;;;;;6242517;23;20011;-71
2021/01/25 01:55:21;;;;;;;10.05;3.55;;;23.10;54.90;;;;;;6240742;23;20004;-71
2021/01/25 01:57:51;;;;;;;8.88;3.03;;;23.10;55.00;;;;;;6242228;23;20011;-71
2021/01/25 02:00:19;;;;;;;10.52;3.40;;;23.10;54.90;;;;;;6241480;23;20012;-72
2021/01/25 02:02:45;;;;;;;10.85;3.03;;;23.10;54.90;;;;;;6240760;23;20028;-71
2021/01/25 02:05:13;;;;;;;9.15;2.10;;;23.10;55.00;;;;;;6242159;23;20338;-71
2021/01/25 02:07:44;;;;;;;6.78;2.22;;;23.10;55.00;;;;;;6240157;23;20418;-71
2021/01/25 02:10:12;;;;;;;7.00;2.67;;;23.00;54.90;;;;;;6241352;23;20398;-71
2021/01/25 02:12:39;;;;;;;11.23;2.53;;;23.00;55.00;;;;;;6240738;23;20366;-70
2021/01/25 02:15:06;;;;;;;8.02;2.20;;;23.00;55.00;;;;;;6241624;23;20331;-70
2021/01/25 02:17:33;;;;;;;12.35;2.90;;;23.00;55.10;;;;;;6241949;23;20573;-71
2021/01/25 02:20:13;;;;;;;5.90;3.10;;;23.00;55.00;;;;;;6241106;23;20122;-70
2021/01/25 02:22:58;;;;;;;12.10;2.85;;;23.00;55.20;;;;;;6242100;23;20015;-72
2021/01/25 02:25:39;;;;;;;7.18;2.22;;;23.00;55.00;;;;;;6240607;23;20040;-75
2021/01/25 02:28:07;;;;;;;9.07;3.00;;;23.00;55.10;;;;;;6241341;23;20450;-76
2021/01/25 02:30:34;;;;;;;9.93;4.70;;;23.00;55.20;;;;;;6241981;23;20023;-75
2021/01/25 02:33:02;;;;;;;7.32;3.22;;;23.00;55.30;;;;;;6240979;23;19997;-75
2021/01/25 02:35:29;;;;;;;8.20;2.63;;;23.00;55.40;;;;;;6241677;23;20023;-70
2021/01/25 02:37:56;;;;;;;11.27;3.25;;;23.00;55.50;;;;;;6238903;22;20058;-70
2021/01/25 02:40:24;;;;;;;10.18;2.28;;;22.90;55.40;;;;;;6240904;23;20004;-70
2021/01/25 02:42:54;;;;;;;11.40;2.45;;;23.00;55.60;;;;;;6240918;23;20420;-70
2021/01/25 02:45:23;;;;;;;8.32;3.00;;;22.90;55.60;;;;;;6241425;23;20064;-71
2021/01/25 02:47:51;;;;;;;6.15;2.03;;;22.90;55.60;;;;;;6241468;23;20690;-70
2021/01/25 02:50:17;;;;;;;6.65;1.92;;;22.90;55.60;;;;;;6240185;23;20455;-71
2021/01/25 02:52:44;;;;;;;13.25;2.92;;;22.90;55.70;;;;;;6241816;23;20000;-71
2021/01/25 02:55:11;;;;;;;11.82;2.75;;;22.90;55.70;;;;;;6240562;23;20373;-71
2021/01/25 02:57:38;;;;;;;11.15;2.85;;;22.90;55.70;;;;;;6241779;23;20026;-71
2021/01/25 03:00:10;;;;;;;14.45;3.03;;;22.80;55.70;;;;;;6239926;23;20448;-75
2021/01/25 03:02:38;;;;;;;9.65;2.55;;;22.80;55.70;;;;;;6241527;23;20541;-75
2021/01/25 03:05:44;;;;;;;6.95;1.95;;;22.90;55.80;;;;;;6240853;23;20008;-75
2021/01/25 03:08:10;;;;;;;10.73;3.00;;;22.80;55.70;;;;;;6239955;22;20007;-73
2021/01/25 03:10:37;;;;;;;10.43;3.30;;;22.80;55.80;;;;;;6240881;23;20081;-71
2021/01/25 03:13:04;;;;;;;9.15;2.28;;;22.80;55.80;;;;;;6238949;22;20008;-71
2021/01/25 03:15:35;;;;;;;7.32;2.55;;;22.80;55.80;;;;;;6238872;23;20374;-70
2021/01/25 03:18:02;;;;;;;11.65;3.08;;;22.80;55.80;;;;;;6241363;22;20000;-71
2021/01/25 03:20:28;;;;;;;13.90;2.97;;;22.80;55.80;;;;;;6240531;23;20003;-73
2021/01/25 03:22:55;;;;;;;8.43;2.60;;;22.80;55.80;;;;;;6241304;23;20000;-71
2021/01/25 03:25:22;;;;;;;7.45;2.97;;;22.80;55.90;;;;;;6240241;23;19996;-71
2021/01/25 03:27:48;;;;;;;12.30;3.25;;;22.80;55.90;;;;;;6241071;23;20028;-71
2021/01/25 03:30:15;;;;;;;13.48;2.42;;;22.80;55.90;;;;;;6240034;23;20012;-74
2021/01/25 03:32:43;;;;;;;8.35;3.50;;;22.80;56.00;;;;;;6241042;23;20363;-73
2021/01/25 03:35:10;;;;;;;9.55;2.30;;;22.70;55.90;;;;;;6240785;23;20000;-71
2021/01/25 03:37:38;;;;;;;9.18;3.00;;;22.70;56.00;;;;;;6240363;23;20054;-70
2021/01/25 03:40:07;;;;;;;8.23;3.47;;;22.70;56.00;;;;;;6241877;23;20049;-71
2021/01/25 03:42:34;;;;;;;11.52;2.17;;;22.70;56.00;;;;;;6237990;23;20007;-72
2021/01/25 03:45:02;;;;;;;9.45;3.42;;;22.70;56.00;;;;;;6241164;23;20000;-70
2021/01/25 03:47:28;;;;;;;5.78;2.35;;;22.70;56.10;;;;;;6239853;23;20070;-71
2021/01/25 03:49:55;;;;;;;7.75;2.78;;;22.70;56.00;;;;;;6241217;23;20008;-71
2021/01/25 03:52:23;;;;;;;6.50;2.60;;;22.70;56.00;;;;;;6240820;23;20000;-71
2021/01/25 03:54:49;;;;;;;10.40;2.78;;;22.70;56.10;;;;;;6241881;23;20091;-71
2021/01/25 03:57:16;;;;;;;8.95;2.40;;;22.60;56.10;;;;;;6241574;23;20006;-71
2021/01/25 03:59:42;;;;;;;13.00;2.40;;;22.70;56.10;;;;;;6239516;23;20015;-71
2021/01/25 04:02:09;;;;;;;8.20;2.85;;;22.60;56.00;;;;;;6240917;23;20415;-71
2021/01/25 04:04:36;;;;;;;5.65;2.47;;;22.60;56.10;;;;;;6239777;23;19997;-74
2021/01/25 04:07:03;;;;;;;9.52;2.85;;;22.60;56.20;;;;;;6241527;23;20007;-72
2021/01/25 04:09:29;;;;;;;15.32;7.30;;;22.60;56.20;;;;;;6240353;23;20008;-71
2021/01/25 04:11:56;;;;;;;14.30;9.50;;;22.60;56.20;;;;;;6240589;23;20004;-70
2021/01/25 04:14:22;;;;;;;11.98;7.10;;;22.60;56.20;;;;;;6240952;23;20436;-69
2021/01/25 04:16:49;;;;;;;14.77;6.13;;;22.60;56.20;;;;;;6240448;23;20043;-69
2021/01/25 04:19:15;;;;;;;11.77;4.63;;;22.60;56.30;;;;;;6242372;23;20000;-70
2021/01/25 04:21:42;;;;;;;10.20;4.55;;;22.60;56.30;;;;;;6242219;23;20000;-69
2021/01/25 04:24:08;;;;;;;16.55;3.83;;;22.60;56.30;;;;;;6241592;22;20074;-69
2021/01/25 04:26:35;;;;;;;10.65;3.90;;;22.60;56.40;;;;;;6242154;23;20007;-71
2021/01/25 04:29:01;;;;;;;12.85;5.63;;;22.50;56.40;;;;;;6242562;23;20019;-78
2021/01/25 04:31:28;;;;;;;21.42;11.18;;;22.60;56.50;;;;;;6242270;23;20323;-71
2021/01/25 04:33:54;;;;;;;17.02;11.32;;;22.50;56.40;;;;;;6242095;23;20428;-76
2021/01/25 04:36:21;;;;;;;17.70;8.88;;;22.50;56.40;;;;;;6242838;23;20444;-69
2021/01/25 04:38:48;;;;;;;17.80;10.32;;;22.50;56.50;;;;;;6241498;23;20066;-72
2021/01/25 04:41:14;;;;;;;20.77;14.07;;;22.50;56.60;;;;;;6241610;23;20031;-71
2021/01/25 04:43:41;;;;;;;19.13;10.63;;;22.50;56.60;;;;;;6241519;23;20035;-71
2021/01/25 04:46:07;;;;;;;13.85;7.97;;;22.50;56.70;;;;;;6243062;23;20071;-70
2021/01/25 04:48:38;;;;;;;15.20;6.15;;;22.50;56.70;;;;;;6241914;23;20008;-71
2021/01/25 04:51:04;;;;;;;13.05;4.97;;;22.50;56.70;;;;;;6242406;23;20558;-71
2021/01/25 04:53:31;;;;;;;8.57;4.00;;;22.50;56.70;;;;;;6242483;23;20051;-70
2021/01/25 04:55:59;;;;;;;8.88;3.83;;;22.50;56.70;;;;;;6241082;23;20027;-71
2021/01/25 04:58:25;;;;;;;8.55;3.33;;;22.50;56.80;;;;;;6242667;23;20075;-71
2021/01/25 05:00:52;;;;;;;10.40;3.33;;;22.50;56.80;;;;;;6241161;23;20016;-70
2021/01/25 05:03:19;;;;;;;8.40;3.25;;;22.50;56.80;;;;;;6242884;23;20071;-70
2021/01/25 05:05:45;;;;;;;8.20;3.30;;;22.50;56.80;;;;;;6241452;23;20015;-71
2021/01/25 05:08:20;;;;;;;11.40;2.60;;;22.50;56.80;;;;;;6240328;23;20323;-70
2021/01/25 05:10:47;;;;;;;8.07;2.30;;;22.50;56.80;;;;;;6237677;23;20279;-70
2021/01/25 05:13:24;;;;;;;5.20;2.85;;;22.50;56.70;;;;;;6241538;23;20004;-70
2021/01/25 05:15:53;;;;;;;10.95;4.30;;;22.50;56.70;;;;;;6241718;23;20392;-70
2021/01/25 05:18:24;;;;;;;10.50;2.78;;;22.50;56.60;;;;;;6240067;22;20034;-71
2021/01/25 05:20:55;;;;;;;7.97;3.45;;;22.50;56.60;;;;;;6241263;23;20375;-71
2021/01/25 05:23:23;;;;;;;7.93;3.20;;;22.50;56.60;;;;;;6240922;23;20000;-70
2021/01/25 05:25:50;;;;;;;11.38;4.32;;;22.50;56.70;;;;;;6240534;23;20011;-71
2021/01/25 05:28:19;;;;;;;13.10;6.97;;;22.60;56.70;;;;;;6241588;23;20084;-71
2021/01/25 05:30:47;;;;;;;13.20;6.53;;;22.50;56.60;;;;;;6240648;23;20083;-70
2021/01/25 05:33:24;;;;;;;15.55;7.82;;;22.50;56.70;;;;;;6242231;23;20031;-70
2021/01/25 05:35:55;;;;;;;19.23;9.50;;;22.60;56.80;;;;;;6235537;23;20062;-70
2021/01/25 05:38:22;;;;;;;10.80;7.35;;;22.60;56.70;;;;;;6240167;23;20000;-71
2021/01/25 05:40:56;;;;;;;13.15;6.38;;;22.60;56.70;;;;;;6240913;23;20000;-71
2021/01/25 05:43:32;;;;;;;13.25;6.15;;;22.70;56.70;;;;;;6238526;23;20007;-71
2021/01/25 05:46:09;;;;;;;15.27;4.18;;;22.70;56.70;;;;;;6241688;23;20004;-74
2021/01/25 05:48:36;;;;;;;9.57;4.72;;;22.70;56.70;;;;;;6239019;23;20388;-70
2021/01/25 05:51:17;;;;;;;9.75;4.35;;;22.70;56.80;;;;;;6241378;23;20367;-71
2021/01/25 05:53:45;;;;;;;13.20;3.42;;;22.70;56.80;;;;;;6241392;23;20004;-70
2021/01/25 05:56:14;;;;;;;20.20;5.00;;;22.70;56.80;;;;;;6240130;23;20412;-70
2021/01/25 05:58:41;;;;;;;11.85;3.58;;;22.80;56.80;;;;;;6241276;23;20081;-72
2021/01/25 06:01:09;;;;;;;10.50;5.68;;;22.80;56.80;;;;;;6239954;23;20015;-70
2021/01/25 06:03:37;;;;;;;13.93;8.85;;;22.80;56.80;;;;;;6242029;23;20054;-71
2021/01/25 06:06:18;;;;;;;15.45;8.38;;;22.80;56.80;;;;;;6240332;23;20035;-71
2021/01/25 06:09:07;;;;;;;15.80;7.72;;;22.80;56.80;;;;;;6240105;23;20474;-71
2021/01/25 06:11:35;;;;;;;10.05;5.50;;;22.90;56.70;;;;;;6240584;23;20000;-71
2021/01/25 06:14:22;;;;;;;13.23;5.80;;;22.90;56.60;;;;;;6239421;23;20007;-71
2021/01/25 06:16:52;;;;;;;16.65;5.28;;;22.90;56.50;;;;;;6240389;23;20424;-70
2021/01/25 06:19:23;;;;;;;17.17;4.95;;;22.90;56.40;;;;;;6239169;22;20011;-74
2021/01/25 06:21:50;;;;;;;7.95;3.90;;;23.00;56.30;;;;;;6240169;23;20008;-72
2021/01/25 06:24:19;;;;;;;9.07;4.93;;;23.00;56.30;;;;;;6240169;23;20027;-71
2021/01/25 06:26:49;;;;;;;14.15;5.70;;;23.00;56.70;;;;;;6238587;23;20021;-72
2021/01/25 06:29:19;;;;;;;13.00;6.35;;;23.10;56.00;;;;;;6239760;23;20619;-72
2021/01/25 06:31:55;;;;;;;13.60;5.00;;;23.10;55.90;;;;;;6238454;23;20058;-70
2021/01/25 06:34:22;;;;;;;9.85;4.82;;;23.10;55.90;;;;;;6241424;23;20345;-71
2021/01/25 06:36:51;;;;;;;9.63;4.22;;;23.20;55.90;;;;;;6240697;23;20000;-71
2021/01/25 06:39:44;;;;;;;8.73;3.90;;;23.20;55.80;;;;;;6241015;23;20011;-72
2021/01/25 06:42:16;;;;;;;13.07;4.15;;;23.20;55.70;;;;;;6241439;22;20008;-72
2021/01/25 06:44:44;;;;;;;11.40;4.05;;;23.30;55.60;;;;;;6240110;23;20388;-73
2021/01/25 06:47:15;;;;;;;7.82;3.17;;;23.30;55.70;;;;;;6240105;23;20023;-71
2021/01/25 06:49:45;;;;;;;7.25;2.60;;;23.30;55.50;;;;;;6239617;22;20016;-72
2021/01/25 06:52:12;;;;;;;5.13;2.63;;;23.30;55.50;;;;;;6240633;23;20000;-71
2021/01/25 06:54:43;;;;;;;8.70;2.70;;;23.40;55.50;;;;;;6241419;23;20030;-75
2021/01/25 06:57:21;;;;;;;7.47;3.17;;;23.40;55.40;;;;;;6239329;23;19999;-73
2021/01/25 06:59:50;;;;;;;7.05;2.92;;;23.40;55.40;;;;;;6241235;23;20015;-74
2021/01/25 07:02:23;;;;;;;7.53;3.38;;;23.40;55.40;;;;;;6237778;23;20000;-75
2021/01/25 07:04:51;;;;;;;11.95;2.72;;;23.50;55.40;;;;;;6239164;23;20395;-73
2021/01/25 07:07:44;;;;;;;7.95;3.17;;;23.50;55.40;;;;;;6239838;23;20000;-71
2021/01/25 07:10:14;;;;;;;16.38;6.70;;;23.50;55.40;;;;;;6234372;23;20821;-73
2021/01/25 07:12:42;;;;;;;15.35;5.45;;;23.60;55.30;;;;;;6241041;23;20000;-72
2021/01/25 07:15:11;;;;;;;12.77;5.63;;;23.60;55.40;;;;;;6239641;23;19997;-71
2021/01/25 07:17:38;;;;;;;11.45;4.90;;;23.60;55.40;;;;;;6240521;23;20482;-71
2021/01/25 07:20:06;;;;;;;11.88;3.78;;;23.70;55.30;;;;;;6240124;23;20000;-71
2021/01/25 07:22:36;;;;;;;9.48;4.22;;;23.70;55.20;;;;;;6240351;23;20001;-71
2021/01/25 07:25:04;;;;;;;6.55;2.97;;;23.80;55.50;;;;;;6241484;23;20044;-75
2021/01/25 07:27:36;;;;;;;15.32;5.13;;;23.80;55.30;;;;;;6239410;23;20004;-72
2021/01/25 07:30:04;;;;;;;8.68;3.17;;;23.90;55.60;;;;;;6240601;23;20039;-72
2021/01/25 07:32:31;;;;;;;7.55;3.03;;;23.90;55.70;;;;;;6239558;22;20428;-71
2021/01/25 07:34:57;;;;;;;14.98;4.00;;;24.00;55.20;;;;;;6240860;23;20074;-71
2021/01/25 07:37:24;;;;;;;11.40;3.25;;;24.00;55.30;;;;;;6239759;23;20004;-75
2021/01/25 07:39:51;;;;;;;9.05;3.83;;;24.00;55.30;;;;;;6240313;23;20031;-74
2021/01/25 07:42:20;;;;;;;12.15;3.40;;;24.10;55.00;;;;;;6240606;23;20000;-75
2021/01/25 07:44:46;;;;;;;9.52;3.00;;;24.10;54.60;;;;;;6240257;23;20301;-75
2021/01/25 07:47:13;;;;;;;13.40;6.30;;;24.20;54.70;;;;;;6240386;23;20375;-75
2021/01/25 07:49:40;;;;;;;18.42;12.98;;;24.20;55.40;;;;;;6239085;23;20018;-74
2021/01/25 07:52:16;;;;;;;17.60;10.63;;;24.30;54.60;;;;;;6241372;23;20008;-71
2021/01/25 07:54:47;;;;;;;17.10;8.32;;;24.30;54.90;;;;;;6242672;23;20379;-70
2021/01/25 07:57:22;;;;;;;15.77;6.18;;;24.40;54.90;;;;;;6241805;23;20059;-71
2021/01/25 07:59:49;;;;;;;11.50;3.90;;;24.40;54.70;;;;;;6243107;23;20008;-71
2021/01/25 08:02:17;;;;;;;19.73;9.07;;;24.70;53.40;;;;;;6241226;23;20035;-70
2021/01/25 08:04:45;;;;;;;18.08;9.07;;;24.70;53.50;;;;;;6242373;22;20058;-71
2021/01/25 08:07:15;;;;;;;17.40;8.07;;;24.70;53.30;;;;;;6241353;23;20482;-71
2021/01/25 08:09:43;;;;;;;15.27;6.22;;;24.70;53.20;;;;;;6242852;23;20023;-71
2021/01/25 08:12:11;;;;;;;12.68;4.80;;;24.70;53.40;;;;;;6242279;23;19996;-71
2021/01/25 08:14:57;;;;;;;10.55;3.97;;;24.70;53.00;;;;;;6241873;22;20031;-71
2021/01/25 08:17:30;;;;;;;15.85;5.22;;;24.80;53.60;;;;;;6240535;22;20007;-71
2021/01/25 08:20:08;;;;;;;13.90;3.90;;;24.80;53.50;;;;;;6242196;23;20000;-71
2021/01/25 08:22:47;;;;;;;17.52;4.70;;;24.90;53.90;;;;;;6242058;23;19996;-70
2021/01/25 08:25:20;;;;;;;13.68;4.75;;;24.90;53.10;;;;;;6242191;23;20331;-72
2021/01/25 08:27:59;;;;;;;12.57;3.47;;;25.00;52.20;;;;;;6241187;23;20075;-72
2021/01/25 08:30:38;;;;;;;9.30;3.75;;;25.10;51.90;;;;;;6243044;23;20086;-71
2021/01/25 08:33:06;;;;;;;12.30;3.72;;;25.10;51.90;;;;;;6241418;23;20482;-72
2021/01/25 08:36:00;;;;;;;21.08;4.13;;;25.20;51.80;;;;;;6242918;23;20003;-72
2021/01/25 08:38:43;;;;;;;11.02;4.00;;;25.20;51.40;;;;;;6239554;23;20012;-72
2021/01/25 08:41:37;;;;;;;5.85;3.15;;;25.30;51.80;;;;;;6241401;23;20435;-72
2021/01/25 08:44:12;;;;;;;12.70;3.03;;;25.30;51.50;;;;;;6240411;23;20012;-71
2021/01/25 08:46:39;;;;;;;9.48;3.97;;;25.40;50.80;;;;;;6241757;23;20000;-72
2021/01/25 08:49:20;;;;;;;11.05;4.32;;;25.50;51.30;;;;;;6241967;23;20012;-72
2021/01/25 08:51:59;;;;;;;8.98;3.35;;;25.60;50.70;;;;;;6243555;23;20011;-72
2021/01/25 08:54:31;;;;;;;9.63;3.08;;;25.60;49.70;;;;;;6241922;23;19996;-72
2021/01/25 08:56:58;;;;;;;7.82;3.42;;;25.70;49.40;;;;;;6241871;23;20450;-72
2021/01/25 08:59:33;;;;;;;9.40;2.97;;;25.70;50.20;;;;;;6242007;23;20000;-72
2021/01/25 09:02:20;;;;;;;10.73;3.05;;;25.70;49.30;;;;;;6241799;23;20431;-72
2021/01/25 09:04:50;;;;;;;9.88;2.95;;;25.80;49.30;;;;;;6231418;23;20008;-72
2021/01/25 09:07:20;;;;;;;8.90;3.03;;;25.80;48.60;;;;;;6240699;23;20406;-72
2021/01/25 09:09:47;;;;;;;9.52;2.42;;;25.90;49.40;;;;;;6242291;23;20012;-72
2021/01/25 09:12:15;;;;;;;11.02;2.90;;;25.90;49.50;;;;;;6240925;23;20075;-71
2021/01/25 09:14:42;;;;;;;11.43;2.60;;;26.00;48.30;;;;;;6242556;23;20011;-72
2021/01/25 09:17:10;;;;;;;7.50;2.55;;;26.10;48.20;;;;;;6241382;23;20046;-72
2021/01/25 09:19:38;;;;;;;7.63;1.92;;;26.10;48.10;;;;;;6241568;23;20084;-72
2021/01/25 09:22:06;;;;;;;8.95;2.33;;;26.20;47.80;;;;;;6242160;23;20364;-73
2021/01/25 09:24:32;;;;;;;20.63;3.22;;;26.30;48.70;;;;;;6241029;23;20319;-73
2021/01/25 09:26:59;;;;;;;6.88;2.20;;;26.40;48.20;;;;;;6240375;23;20375;-72
2021/01/25 09:29:26;;;;;;;8.70;2.50;;;26.50;48.10;;;;;;6241127;23;20099;-72
2021/01/25 09:31:52;;;;;;;6.32;1.90;;;26.50;47.40;;;;;;6242321;23;20028;-73
2021/01/25 09:34:19;;;;;;;3.85;1.58;;;26.60;47.20;;;;;;6241542;23;20004;-72
2021/01/25 09:36:45;;;;;;;4.38;1.92;;;26.60;46.70;;;;;;6241039;23;20000;-72
2021/01/25 09:39:14;;;;;;;7.78;2.10;;;26.70;46.40;;;;;;6243010;23;20007;-72
2021/01/25 09:41:47;;;;;;;6.95;1.67;;;26.70;45.80;;;;;;6240782;23;20000;-73
2021/01/25 09:44:15;;;;;;;7.10;1.75;;;26.80;45.10;;;;;;6242107;23;20397;-70
2021/01/25 09:46:42;;;;;;;7.90;2.53;;;26.70;44.60;;;;;;6240137;23;19996;-69
2021/01/25 09:49:10;;;;;;;10.73;3.92;;;26.70;45.10;;;;;;6240638;23;20387;-69
2021/01/25 09:51:37;;;;;;;12.52;2.95;;;26.70;44.50;;;;;;6241617;23;20424;-70
2021/01/25 09:54:04;;;;;;;5.03;1.60;;;26.70;44.50;;;;;;6241263;23;20007;-70
2021/01/25 09:56:30;;;;;;;10.70;2.95;;;26.70;44.40;;;;;;6241818;23;20004;-69
2021/01/25 09:58:57;;;;;;;10.75;1.88;;;26.70;44.60;;;;;;6240585;23;20017;-69
2021/01/25 10:01:24;;;;;;;16.50;11.98;;;26.80;44.00;;;;;;6242063;23;20023;-70
2021/01/25 10:03:50;;;;;;;10.63;4.18;;;26.90;44.00;;;;;;6240571;23;20000;-69
2021/01/25 10:06:17;;;;;;;8.40;2.85;;;26.90;43.80;;;;;;6242125;23;19996;-70
2021/01/25 10:08:44;;;;;;;8.10;2.72;;;26.90;44.00;;;;;;6240783;23;20042;-69
2021/01/25 10:11:11;;;;;;;7.63;2.20;;;27.00;43.40;;;;;;6241207;23;20075;-69
2021/01/25 10:13:38;;;;;;;8.18;2.20;;;27.00;43.30;;;;;;6241776;23;20007;-72
2021/01/25 10:16:04;;;;;;;10.30;2.28;;;27.00;43.30;;;;;;6240132;23;19999;-73
2021/01/25 10:18:31;;;;;;;6.72;2.05;;;27.00;42.90;;;;;;6241918;23;20023;-72
2021/01/25 10:20:58;;;;;;;7.47;3.05;;;27.00;43.10;;;;;;6240750;23;20000;-72
2021/01/25 10:23:25;;;;;;;11.02;3.05;;;27.00;42.70;;;;;;6242280;23;19997;-72
2021/01/25 10:25:52;;;;;;;11.52;2.22;;;27.10;42.80;;;;;;6241153;23;20004;-71
2021/01/25 10:28:18;;;;;;;9.85;2.28;;;27.10;42.60;;;;;;6241831;23;20004;-72
2021/01/25 10:30:46;;;;;;;8.57;2.10;;;27.20;42.60;;;;;;6242175;23;20012;-71
2021/01/25 10:33:12;;;;;;;5.75;2.38;;;27.30;42.50;;;;;;6241245;23;20000;-72
2021/01/25 10:35:40;;;;;;;12.27;2.03;;;27.30;42.60;;;;;;6240955;22;20039;-73
2021/01/25 10:38:06;;;;;;;5.97;1.65;;;27.30;42.60;;;;;;6240209;23;20625;-72
2021/01/25 10:40:33;;;;;;;8.70;2.33;;;27.50;42.60;;;;;;6241465;23;20000;-71
2021/01/25 10:42:59;;;;;;;6.95;1.70;;;27.60;42.40;;;;;;6240548;23;20424;-72
2021/01/25 10:45:26;;;;;;;8.48;2.00;;;27.70;42.80;;;;;;6241335;23;20446;-71
2021/01/25 10:47:53;;;;;;;7.43;1.98;;;27.70;42.20;;;;;;6241221;23;20007;-72
2021/01/25 10:50:21;;;;;;;7.18;2.15;;;27.80;42.20;;;;;;6239987;22;20066;-72
2021/01/25 10:52:49;;;;;;;12.63;7.45;;;27.80;42.30;;;;;;6241608;23;20003;-72
2021/01/25 10:55:16;;;;;;;6.10;4.25;;;27.70;42.40;;;;;;6234380;23;20000;-72
2021/01/25 10:57:43;;;;;;;9.15;3.00;;;27.80;42.60;;;;;;6240270;23;19996;-71
2021/01/25 11:00:18;;;;;;;7.05;3.08;;;27.80;42.40;;;;;;6240059;23;20008;-72
2021/01/25 11:02:45;;;;;;;19.73;16.50;;;27.90;42.80;;;;;;6241551;23;20004;-70
2021/01/25 11:05:15;;;;;;;9.57;4.57;;;27.90;42.80;;;;;;6241491;23;20001;-71
2021/01/25 11:07:41;;;;;;;10.60;3.72;;;27.90;42.80;;;;;;6239133;23;19996;-71
2021/01/25 11:10:10;;;;;;;7.50;3.88;;;28.00;42.80;;;;;;6241291;23;20008;-72
2021/01/25 11:12:37;;;;;;;8.60;2.95;;;28.10;43.30;;;;;;6240374;23;20006;-72
2021/01/25 11:15:05;;;;;;;4.97;2.40;;;28.20;44.00;;;;;;6241304;23;20030;-71
2021/01/25 11:17:32;;;;;;;17.25;14.30;;;28.30;43.50;;;;;;6238945;23;20001;-71
2021/01/25 11:19:58;;;;;;;26.90;23.95;;;28.40;43.50;;;;;;6241355;23;20000;-71
2021/01/25 11:22:25;;;;;;;14.90;10.57;;;28.40;43.10;;;;;;6239657;23;20078;-71
2021/01/25 11:24:51;;;;;;;12.05;6.72;;;28.50;42.50;;;;;;6240377;23;20000;-71
2021/01/25 11:27:18;;;;;;;8.15;4.97;;;28.50;42.40;;;;;;6241352;23;20003;-72
2021/01/25 11:29:45;;;;;;;6.75;3.58;;;28.60;42.60;;;;;;6239685;23;20016;-73
2021/01/25 11:32:12;;;;;;;3.72;2.83;;;28.70;42.30;;;;;;6241439;23;20462;-72
2021/01/25 11:34:39;;;;;;;8.85;2.53;;;28.80;41.80;;;;;;6239437;22;20004;-72
2021/01/25 11:37:06;;;;;;;5.82;4.30;;;28.80;42.00;;;;;;6242040;23;19997;-72
2021/01/25 11:39:33;;;;;;;5.78;2.38;;;28.90;41.80;;;;;;6238130;23;20305;-72
2021/01/25 11:42:00;;;;;;;13.88;3.40;;;28.90;41.80;;;;;;6238172;23;20427;-72
2021/01/25 11:44:28;;;;;;;8.10;2.72;;;28.90;41.30;;;;;;6239101;23;20008;-71
2021/01/25 11:46:55;;;;;;;3.85;1.90;;;28.90;40.80;;;;;;6239660;23;20004;-71
2021/01/25 11:49:22;;;;;;;6.22;1.95;;;29.00;41.20;;;;;;6240846;23;20354;-71
2021/01/25 11:51:48;;;;;;;8.02;1.73;;;29.10;41.00;;;;;;6239168;23;20001;-71
2021/01/25 11:54:15;;;;;;;6.30;2.08;;;29.10;40.30;;;;;;6240914;23;20050;-71
2021/01/25 11:56:41;;;;;;;3.20;2.03;;;29.10;40.30;;;;;;6239598;23;20011;-71
2021/01/25 11:59:08;;;;;;;2.58;1.73;;;29.10;40.70;;;;;;6240648;23;20428;-71
2021/01/25 12:01:36;;;;;;;6.90;1.88;;;29.20;40.20;;;;;;6239705;23;20016;-71
2021/01/25 12:04:04;;;;;;;3.70;2.10;;;29.20;40.40;;;;;;6239936;23;20086;-71
2021/01/25 12:06:30;;;;;;;3.30;1.30;;;29.30;41.00;;;;;;6240948;23;20000;-72
2021/01/25 12:08:57;;;;;;;6.75;2.15;;;29.30;40.30;;;;;;6228914;23;20119;-71
2021/01/25 12:11:24;;;;;;;2.20;1.35;;;29.40;40.40;;;;;;6237252;23;20489;-72
2021/01/25 12:13:50;;;;;;;6.70;1.63;;;29.40;40.10;;;;;;6235655;23;20019;-72
2021/01/25 12:16:17;;;;;;;13.10;7.07;;;29.40;39.60;;;;;;6237178;22;20004;-72
2021/01/25 12:18:45;;;;;;;8.10;3.65;;;29.50;39.90;;;;;;6236667;23;20601;-72
2021/01/25 12:21:13;;;;;;;7.43;2.97;;;29.60;40.00;;;;;;6236504;23;20026;-73
2021/01/25 12:23:40;;;;;;;4.43;1.90;;;29.60;40.00;;;;;;6237178;23;20015;-72
2021/01/25 12:26:06;;;;;;;6.30;2.78;;;29.70;40.00;;;;;;6235784;23;20039;-72
2021/01/25 12:28:33;;;;;;;7.05;1.90;;;29.70;40.00;;;;;;6237340;23;20395;-73
2021/01/25 12:31:04;;;;;;;5.80;2.42;;;29.80;40.40;;;;;;6235357;23;20336;-73
2021/01/25 12:33:32;;;;;;;5.47;1.85;;;29.80;40.70;;;;;;6237457;23;20000;-72
2021/01/25 12:35:59;;;;;;;6.57;1.85;;;29.80;40.60;;;;;;6236766;23;20000;-72
2021/01/25 12:38:25;;;;;;;3.25;1.45;;;29.90;41.00;;;;;;6236563;23;20047;-72
2021/01/25 12:40:52;;;;;;;6.50;2.40;;;29.90;40.40;;;;;;6239015;23;20015;-73
2021/01/25 12:43:19;;;;;;;5.40;1.80;;;29.90;40.70;;;;;;6237608;23;20000;-72
2021/01/25 12:45:45;;;;;;;4.40;1.70;;;29.80;41.00;;;;;;6238304;23;20462;-72
2021/01/25 12:48:12;;;;;;;7.82;1.70;;;29.90;41.70;;;;;;6237902;23;20704;-72